sensor_id;sensor_type;location;lat;lon;timestamp;pressure;altitude;pressure_sealevel;temperature;humidity
50093;BME280;35974;47.752;10.290;2023-07-16T00:02:00;93817.34;;;20.82;100.00
50093;BME280;35974;47.752;10.290;2023-07-16T00:04:33;93818.97;;;20.78;100.00
50093;BME280;35974;47.752;10.290;2023-07-16T00:07:01;93818.94;;;20.94;100.00
50093;BME280;35974;47.752;10.290;2023-07-16T00:09:28;93825.06;;;20.94;100.00
50093;BME280;35974;47.752;10.290;2023-07-16T00:11:56;93839.19;;;20.84;100.00
50093;BME280;35974;47.752;10.290;2023-07-16T00:14:22;93849.28;;;20.82;100.00
50093;BME280;35974;47.752;10.290;2023-07-16T00:16:50;93846.63;;;20.62;100.00
50093;BME280;35974;47.752;10.290;2023-07-16T00:19:19;93852.47;;;20.74;100.00
50093;BME280;35974;47.752;10.290;2023-07-16T00:21:46;93854.59;;;20.72;100.00
50093;BME280;35974;47.752;10.290;2023-07-16T00:24:12;93863.63;;;20.71;100.00
50093;BME280;35974;47.752;10.290;2023-07-16T00:26:39;93867.88;;;20.88;100.00
50093;BME280;35974;47.752;10.290;2023-07-16T00:29:05;93874.78;;;20.89;100.00
50093;BME280;35974;47.752;10.290;2023-07-16T00:31:31;93876.94;;;20.87;100.00
50093;BME280;35974;47.752;10.290;2023-07-16T00:33:58;93866.31;;;20.81;100.00
50093;BME280;35974;47.752;10.290;2023-07-16T00:36:24;93883.31;;;20.85;100.00
50093;BME280;35974;47.752;10.290;2023-07-16T00:38:50;93890.72;;;20.99;100.00
50093;BME280;35974;47.752;10.290;2023-07-16T00:41:19;93891.22;;;21.27;100.00
50093;BME280;35974;47.752;10.290;2023-07-16T00:43:45;93900.78;;;21.33;100.00
50093;BME280;35974;47.752;10.290;2023-07-16T00:46:12;93911.47;;;21.23;100.00
50093;BME280;35974;47.752;10.290;2023-07-16T00:48:51;93916.53;;;21.14;100.00
50093;BME280;35974;47.752;10.290;2023-07-16T00:51:17;93926.41;;;20.98;100.00
50093;BME280;35974;47.752;10.290;2023-07-16T00:53:44;93913.09;;;21.03;100.00
50093;BME280;35974;47.752;10.290;2023-07-16T00:56:11;93900.31;;;20.95;100.00
50093;BME280;35974;47.752;10.290;2023-07-16T00:58:38;93895.53;;;20.97;100.00
50093;BME280;35974;47.752;10.290;2023-07-16T01:01:04;93891.78;;;21.24;100.00
50093;BME280;35974;47.752;10.290;2023-07-16T01:03:31;93907.22;;;21.16;100.00
50093;BME280;35974;47.752;10.290;2023-07-16T01:08:30;93922.38;;;21.16;100.00
50093;BME280;35974;47.752;10.290;2023-07-16T01:10:58;93925.34;;;21.04;100.00
50093;BME280;35974;47.752;10.290;2023-07-16T01:13:26;93925.84;;;20.91;100.00
50093;BME280;35974;47.752;10.290;2023-07-16T01:15:53;93930.63;;;21.14;100.00
50093;BME280;35974;47.752;10.290;2023-07-16T01:18:19;93924.78;;;20.97;100.00
50093;BME280;35974;47.752;10.290;2023-07-16T01:20:46;93930.09;;;20.76;100.00
50093;BME280;35974;47.752;10.290;2023-07-16T01:23:24;93939.44;;;20.79;100.00
50093;BME280;35974;47.752;10.290;2023-07-16T01:26:02;93926.94;;;20.90;100.00
50093;BME280;35974;47.752;10.290;2023-07-16T01:28:36;93928.50;;;21.06;100.00
50093;BME280;35974;47.752;10.290;2023-07-16T01:31:05;93932.78;;;20.92;100.00
50093;BME280;35974;47.752;10.290;2023-07-16T01:33:32;93947.94;;;20.96;100.00
50093;BME280;35974;47.752;10.290;2023-07-16T01:35:59;93945.53;;;20.79;100.00
50093;BME280;35974;47.752;10.290;2023-07-16T01:38:25;93937.28;;;20.86;100.00
50093;BME280;35974;47.752;10.290;2023-07-16T01:40:52;93947.13;;;20.91;100.00
50093;BME280;35974;47.752;10.290;2023-07-16T01:43:18;93945.00;;;21.08;100.00
50093;BME280;35974;47.752;10.290;2023-07-16T01:45:44;93936.22;;;20.97;100.00
50093;BME280;35974;47.752;10.290;2023-07-16T01:48:16;93937.56;;;20.95;100.00
50093;BME280;35974;47.752;10.290;2023-07-16T01:50:48;93945.00;;;20.88;100.00
50093;BME280;35974;47.752;10.290;2023-07-16T01:53:16;93936.50;;;20.80;100.00
50093;BME280;35974;47.752;10.290;2023-07-16T01:55:43;93939.69;;;20.82;100.00
50093;BME280;35974;47.752;10.290;2023-07-16T01:58:09;93942.34;;;20.77;100.00
50093;BME280;35974;47.752;10.290;2023-07-16T02:00:36;93946.59;;;20.83;100.00
50093;BME280;35974;47.752;10.290;2023-07-16T02:03:03;93943.41;;;20.76;100.00
50093;BME280;35974;47.752;10.290;2023-07-16T02:05:29;93942.34;;;20.77;100.00
50093;BME280;35974;47.752;10.290;2023-07-16T02:07:56;93935.97;;;20.94;100.00
50093;BME280;35974;47.752;10.290;2023-07-16T02:10:24;93935.44;;;20.97;100.00
50093;BME280;35974;47.752;10.290;2023-07-16T02:15:20;93948.19;;;21.05;100.00
50093;BME280;35974;47.752;10.290;2023-07-16T02:17:46;93952.47;;;20.80;100.00
50093;BME280;35974;47.752;10.290;2023-07-16T02:20:13;93960.88;;;20.31;100.00
50093;BME280;35974;47.752;10.290;2023-07-16T02:22:40;93970.41;;;20.17;100.00
50093;BME280;35974;47.752;10.290;2023-07-16T02:25:06;93969.31;;;20.12;100.00
50093;BME280;35974;47.752;10.290;2023-07-16T02:27:33;93975.16;;;20.15;100.00
50093;BME280;35974;47.752;10.290;2023-07-16T02:29:59;93980.44;;;20.09;100.00
50093;BME280;35974;47.752;10.290;2023-07-16T02:32:26;93988.75;;;19.70;100.00
50093;BME280;35974;47.752;10.290;2023-07-16T02:34:52;93999.06;;;19.19;100.00
50093;BME280;35974;47.752;10.290;2023-07-16T02:37:20;93995.69;;;18.96;100.00
50093;BME280;35974;47.752;10.290;2023-07-16T02:39:47;94000.78;;;19.03;100.00
50093;BME280;35974;47.752;10.290;2023-07-16T02:42:14;94000.19;;;18.69;100.00
50093;BME280;35974;47.752;10.290;2023-07-16T02:44:40;94005.06;;;18.27;100.00
50093;BME280;35974;47.752;10.290;2023-07-16T02:47:10;94010.22;;;17.73;100.00
50093;BME280;35974;47.752;10.290;2023-07-16T02:49:38;94006.06;;;17.43;100.00
50093;BME280;35974;47.752;10.290;2023-07-16T02:52:05;94017.94;;;17.57;100.00
50093;BME280;35974;47.752;10.290;2023-07-16T02:54:31;94027.34;;;17.48;100.00
50093;BME280;35974;47.752;10.290;2023-07-16T02:56:59;94011.13;;;17.62;100.00
50093;BME280;35974;47.752;10.290;2023-07-16T02:59:25;94022.94;;;17.37;100.00
50093;BME280;35974;47.752;10.290;2023-07-16T03:01:51;94032.06;;;17.12;100.00
50093;BME280;35974;47.752;10.290;2023-07-16T03:04:18;94036.25;;;17.08;100.00
50093;BME280;35974;47.752;10.290;2023-07-16T03:06:44;94037.84;;;17.09;100.00
50093;BME280;35974;47.752;10.290;2023-07-16T03:09:11;94033.34;;;17.27;100.00
50093;BME280;35974;47.752;10.290;2023-07-16T03:11:37;94040.88;;;17.35;100.00
50093;BME280;35974;47.752;10.290;2023-07-16T03:14:04;94030.47;;;17.45;100.00
50093;BME280;35974;47.752;10.290;2023-07-16T03:16:30;94036.16;;;17.37;100.00
50093;BME280;35974;47.752;10.290;2023-07-16T03:18:56;94048.81;;;17.35;100.00
50093;BME280;35974;47.752;10.290;2023-07-16T03:23:52;94064.94;;;17.50;100.00
50093;BME280;35974;47.752;10.290;2023-07-16T03:26:18;94071.00;;;17.51;100.00
50093;BME280;35974;47.752;10.290;2023-07-16T03:28:45;94072.38;;;17.53;100.00
50093;BME280;35974;47.752;10.290;2023-07-16T03:31:11;94079.03;;;17.39;100.00
50093;BME280;35974;47.752;10.290;2023-07-16T03:33:38;94070.84;;;17.24;100.00
50093;BME280;35974;47.752;10.290;2023-07-16T03:36:04;94055.31;;;17.10;100.00
50093;BME280;35974;47.752;10.290;2023-07-16T03:38:31;94044.00;;;16.98;100.00
50093;BME280;35974;47.752;10.290;2023-07-16T03:40:57;94039.59;;;16.87;100.00
50093;BME280;35974;47.752;10.290;2023-07-16T03:43:23;94039.38;;;16.76;100.00
50093;BME280;35974;47.752;10.290;2023-07-16T03:45:50;94041.13;;;16.71;100.00
50093;BME280;35974;47.752;10.290;2023-07-16T03:48:16;94028.16;;;16.69;100.00
50093;BME280;35974;47.752;10.290;2023-07-16T03:50:42;94039.38;;;16.76;100.00
50093;BME280;35974;47.752;10.290;2023-07-16T03:53:09;94044.56;;;16.71;100.00
50093;BME280;35974;47.752;10.290;2023-07-16T03:55:35;94048.63;;;16.62;100.00
50093;BME280;35974;47.752;10.290;2023-07-16T03:58:02;94048.91;;;16.48;100.00
50093;BME280;35974;47.752;10.290;2023-07-16T04:00:29;94057.41;;;16.51;100.00
50093;BME280;35974;47.752;10.290;2023-07-16T04:02:55;94062.97;;;16.37;100.00
50093;BME280;35974;47.752;10.290;2023-07-16T04:05:21;94067.13;;;16.33;100.00
50093;BME280;35974;47.752;10.290;2023-07-16T04:07:50;94068.56;;;16.41;100.00
50093;BME280;35974;47.752;10.290;2023-07-16T04:10:16;94070.03;;;16.48;100.00
50093;BME280;35974;47.752;10.290;2023-07-16T04:12:42;94061.75;;;16.57;100.00
50093;BME280;35974;47.752;10.290;2023-07-16T04:15:09;94057.13;;;16.64;100.00
50093;BME280;35974;47.752;10.290;2023-07-16T04:17:36;94056.56;;;16.62;100.00
50093;BME280;35974;47.752;10.290;2023-07-16T04:20:03;94046.94;;;16.56;100.00
50093;BME280;35974;47.752;10.290;2023-07-16T04:22:33;94041.84;;;16.66;100.00
50093;BME280;35974;47.752;10.290;2023-07-16T04:25:00;94044.47;;;16.66;100.00
50093;BME280;35974;47.752;10.290;2023-07-16T04:27:26;94046.28;;;16.77;100.00
50093;BME280;35974;47.752;10.290;2023-07-16T04:29:52;94056.38;;;16.80;100.00
50093;BME280;35974;47.752;10.290;2023-07-16T04:32:19;94070.91;;;16.66;100.00
50093;BME280;35974;47.752;10.290;2023-07-16T04:34:45;94086.56;;;16.56;100.00
50093;BME280;35974;47.752;10.290;2023-07-16T04:37:12;94091.44;;;16.35;100.00
50093;BME280;35974;47.752;10.290;2023-07-16T04:39:38;94085.03;;;16.31;100.00
50093;BME280;35974;47.752;10.290;2023-07-16T04:42:04;94089.28;;;16.32;100.00
50093;BME280;35974;47.752;10.290;2023-07-16T04:44:32;94092.25;;;16.36;100.00
50093;BME280;35974;47.752;10.290;2023-07-16T04:46:58;94096.28;;;16.38;100.00
50093;BME280;35974;47.752;10.290;2023-07-16T04:49:24;94109.84;;;16.30;100.00
50093;BME280;35974;47.752;10.290;2023-07-16T04:51:51;94091.03;;;16.15;100.00
50093;BME280;35974;47.752;10.290;2023-07-16T04:54:17;94087.63;;;16.02;100.00
50093;BME280;35974;47.752;10.290;2023-07-16T04:56:44;94098.31;;;15.96;100.00
50093;BME280;35974;47.752;10.290;2023-07-16T04:59:10;94099.47;;;15.88;100.00
50093;BME280;35974;47.752;10.290;2023-07-16T05:01:36;94099.69;;;15.86;100.00
50093;BME280;35974;47.752;10.290;2023-07-16T05:04:03;94105.19;;;15.85;100.00
50093;BME280;35974;47.752;10.290;2023-07-16T05:06:29;94108.75;;;15.79;100.00
50093;BME280;35974;47.752;10.290;2023-07-16T05:08:56;94114.84;;;15.79;100.00
50093;BME280;35974;47.752;10.290;2023-07-16T05:11:22;94126.63;;;16.00;100.00
50093;BME280;35974;47.752;10.290;2023-07-16T05:13:48;94113.66;;;16.10;100.00
50093;BME280;35974;47.752;10.290;2023-07-16T05:16:15;94114.03;;;16.02;100.00
50093;BME280;35974;47.752;10.290;2023-07-16T05:18:41;94124.34;;;15.92;100.00
50093;BME280;35974;47.752;10.290;2023-07-16T05:21:08;94114.03;;;16.02;100.00
50093;BME280;35974;47.752;10.290;2023-07-16T05:23:34;94105.75;;;16.10;100.00
50093;BME280;35974;47.752;10.290;2023-07-16T05:26:00;94114.06;;;16.31;100.00
50093;BME280;35974;47.752;10.290;2023-07-16T05:28:27;94118.59;;;16.19;100.00
50093;BME280;35974;47.752;10.290;2023-07-16T05:31:00;94132.81;;;16.18;100.00
50093;BME280;35974;47.752;10.290;2023-07-16T05:33:28;94136.13;;;16.13;100.00
50093;BME280;35974;47.752;10.290;2023-07-16T05:35:55;94126.88;;;15.87;100.00
50093;BME280;35974;47.752;10.290;2023-07-16T05:38:21;94121.38;;;15.77;100.00
50093;BME280;35974;47.752;10.290;2023-07-16T05:40:48;94114.91;;;15.72;100.00
50093;BME280;35974;47.752;10.290;2023-07-16T05:43:14;94120.91;;;15.80;100.00
50093;BME280;35974;47.752;10.290;2023-07-16T05:45:41;94120.56;;;15.88;100.00
50093;BME280;35974;47.752;10.290;2023-07-16T05:48:07;94130.31;;;15.99;100.00
50093;BME280;35974;47.752;10.290;2023-07-16T05:50:34;94122.56;;;16.21;100.00
50093;BME280;35974;47.752;10.290;2023-07-16T05:53:00;94129.34;;;16.29;100.00
50093;BME280;35974;47.752;10.290;2023-07-16T05:55:27;94142.19;;;16.37;100.00
50093;BME280;35974;47.752;10.290;2023-07-16T05:57:53;94138.63;;;16.43;100.00
50093;BME280;35974;47.752;10.290;2023-07-16T06:00:19;94139.19;;;16.45;100.00
50093;BME280;35974;47.752;10.290;2023-07-16T06:02:46;94135.06;;;16.50;100.00
50093;BME280;35974;47.752;10.290;2023-07-16T06:05:13;94144.69;;;16.56;100.00
50093;BME280;35974;47.752;10.290;2023-07-16T06:07:39;94141.09;;;16.62;100.00
50093;BME280;35974;47.752;10.290;2023-07-16T06:10:06;94137.19;;;16.64;100.00
50093;BME280;35974;47.752;10.290;2023-07-16T06:12:32;94153.38;;;16.68;100.00
50093;BME280;35974;47.752;10.290;2023-07-16T06:14:59;94145.06;;;16.76;100.00
50093;BME280;35974;47.752;10.290;2023-07-16T06:17:25;94134.78;;;16.63;100.00
50093;BME280;35974;47.752;10.290;2023-07-16T06:19:52;94135.72;;;16.57;100.00
50093;BME280;35974;47.752;10.290;2023-07-16T06:22:18;94139.59;;;16.66;100.00
50093;BME280;35974;47.752;10.290;2023-07-16T06:24:45;94157.06;;;16.67;100.00
50093;BME280;35974;47.752;10.290;2023-07-16T06:27:11;94147.09;;;16.45;100.00
50093;BME280;35974;47.752;10.290;2023-07-16T06:29:37;94139.19;;;16.45;100.00
50093;BME280;35974;47.752;10.290;2023-07-16T06:32:04;94137.13;;;16.47;100.00
50093;BME280;35974;47.752;10.290;2023-07-16T06:34:31;94134.84;;;16.39;100.00
50093;BME280;35974;47.752;10.290;2023-07-16T06:36:57;94133.16;;;16.33;100.00
50093;BME280;35974;47.752;10.290;2023-07-16T06:39:23;94141.16;;;16.38;100.00
50093;BME280;35974;47.752;10.290;2023-07-16T06:41:51;94132.31;;;16.44;100.00
50093;BME280;35974;47.752;10.290;2023-07-16T06:44:17;94124.63;;;16.43;100.00
50093;BME280;35974;47.752;10.290;2023-07-16T06:46:44;94129.69;;;16.44;100.00
50093;BME280;35974;47.752;10.290;2023-07-16T06:49:10;94127.69;;;16.52;100.00
50093;BME280;35974;47.752;10.290;2023-07-16T06:51:36;94061.91;;;16.09;100.00
50093;BME280;35974;47.752;10.290;2023-07-16T06:54:03;94126.75;;;16.58;100.00
50093;BME280;35974;47.752;10.290;2023-07-16T06:56:29;94120.31;;;16.54;100.00
50093;BME280;35974;47.752;10.290;2023-07-16T06:58:56;94118.75;;;16.53;100.00
50093;BME280;35974;47.752;10.290;2023-07-16T07:01:22;94116.38;;;16.68;100.00
50093;BME280;35974;47.752;10.290;2023-07-16T07:03:48;94115.09;;;17.11;100.00
50093;BME280;35974;47.752;10.290;2023-07-16T07:06:15;94112.22;;;17.30;100.00
50093;BME280;35974;47.752;10.290;2023-07-16T07:08:42;94120.47;;;17.50;100.00
50093;BME280;35974;47.752;10.290;2023-07-16T07:11:08;94097.94;;;17.65;100.00
50093;BME280;35974;47.752;10.290;2023-07-16T07:13:34;94088.53;;;17.74;100.00
50093;BME280;35974;47.752;10.290;2023-07-16T07:16:01;94081.00;;;18.00;100.00
50093;BME280;35974;47.752;10.290;2023-07-16T07:18:28;94083.91;;;18.20;100.00
50093;BME280;35974;47.752;10.290;2023-07-16T07:20:56;94074.66;;;18.45;100.00
50093;BME280;35974;47.752;10.290;2023-07-16T07:23:22;94085.59;;;18.26;100.00
50093;BME280;35974;47.752;10.290;2023-07-16T07:25:49;94089.47;;;18.41;100.00
50093;BME280;35974;47.752;10.290;2023-07-16T07:28:17;94078.72;;;18.30;100.00
50093;BME280;35974;47.752;10.290;2023-07-16T07:30:44;94077.94;;;18.30;100.00
50093;BME280;35974;47.752;10.290;2023-07-16T07:33:10;94073.97;;;18.33;100.00
50093;BME280;35974;47.752;10.290;2023-07-16T07:35:37;94071.66;;;18.36;100.00
50093;BME280;35974;47.752;10.290;2023-07-16T07:38:12;94076.03;;;18.25;100.00
50093;BME280;35974;47.752;10.290;2023-07-16T07:40:39;94073.44;;;18.30;100.00
50093;BME280;35974;47.752;10.290;2023-07-16T07:43:08;94073.19;;;18.54;100.00
50093;BME280;35974;47.752;10.290;2023-07-16T07:45:35;94074.59;;;18.40;100.00
50093;BME280;35974;47.752;10.290;2023-07-16T07:48:01;94076.38;;;18.56;100.00
50093;BME280;35974;47.752;10.290;2023-07-16T07:50:29;94067.59;;;18.78;100.00
50093;BME280;35974;47.752;10.290;2023-07-16T07:55:26;94056.91;;;19.22;100.00
50093;BME280;35974;47.752;10.290;2023-07-16T07:57:53;94071.84;;;19.33;100.00
50093;BME280;35974;47.752;10.290;2023-07-16T08:00:20;94072.28;;;19.25;100.00
50093;BME280;35974;47.752;10.290;2023-07-16T08:02:46;94066.47;;;19.28;100.00
50093;BME280;35974;47.752;10.290;2023-07-16T08:05:18;94066.19;;;19.62;100.00
50093;BME280;35974;47.752;10.290;2023-07-16T08:07:54;94067.16;;;19.83;100.00
50093;BME280;35974;47.752;10.290;2023-07-16T08:10:23;94073.31;;;19.89;100.00
50093;BME280;35974;47.752;10.290;2023-07-16T08:12:49;94078.22;;;20.18;100.00
50093;BME280;35974;47.752;10.290;2023-07-16T08:15:17;94082.53;;;20.24;100.00
50093;BME280;35974;47.752;10.290;2023-07-16T08:17:46;94077.44;;;20.17;100.00
50093;BME280;35974;47.752;10.290;2023-07-16T08:20:13;94075.78;;;20.06;100.00
50093;BME280;35974;47.752;10.290;2023-07-16T08:22:40;94085.09;;;20.03;100.00
50093;BME280;35974;47.752;10.290;2023-07-16T08:27:46;94079.34;;;20.22;100.00
50093;BME280;35974;47.752;10.290;2023-07-16T08:30:22;94065.03;;;20.38;100.00
50093;BME280;35974;47.752;10.290;2023-07-16T08:32:49;94070.19;;;20.02;100.00
50093;BME280;35974;47.752;10.290;2023-07-16T08:35:17;94067.00;;;20.00;100.00
50093;BME280;35974;47.752;10.290;2023-07-16T08:40:18;94064.66;;;20.09;100.00
50093;BME280;35974;47.752;10.290;2023-07-16T08:42:46;94063.41;;;20.27;100.00
50093;BME280;35974;47.752;10.290;2023-07-16T08:45:23;94058.63;;;20.29;100.00
50093;BME280;35974;47.752;10.290;2023-07-16T08:47:51;94069.69;;;20.05;100.00
50093;BME280;35974;47.752;10.290;2023-07-16T08:50:21;94067.44;;;19.87;100.00
50093;BME280;35974;47.752;10.290;2023-07-16T08:52:51;94073.75;;;20.18;100.00
50093;BME280;35974;47.752;10.290;2023-07-16T08:55:21;94067.16;;;20.31;100.00
50093;BME280;35974;47.752;10.290;2023-07-16T08:57:55;94063.41;;;20.32;100.00
50093;BME280;35974;47.752;10.290;2023-07-16T09:00:23;94057.06;;;20.38;100.00
50093;BME280;35974;47.752;10.290;2023-07-16T09:02:52;94049.75;;;20.71;100.00
50093;BME280;35974;47.752;10.290;2023-07-16T09:05:26;94055.03;;;20.61;100.00
50093;BME280;35974;47.752;10.290;2023-07-16T09:08:04;94058.19;;;20.53;100.00
50093;BME280;35974;47.752;10.290;2023-07-16T09:10:30;94066.16;;;20.47;100.00
50093;BME280;35974;47.752;10.290;2023-07-16T09:12:58;94067.34;;;20.82;100.00
50093;BME280;35974;47.752;10.290;2023-07-16T09:15:38;94055.69;;;21.14;100.00
50093;BME280;35974;47.752;10.290;2023-07-16T09:18:19;94063.09;;;20.97;100.00
50093;BME280;35974;47.752;10.290;2023-07-16T09:20:54;94056.22;;;21.06;100.00
50093;BME280;35974;47.752;10.290;2023-07-16T09:23:23;94062.06;;;21.03;100.00
50093;BME280;35974;47.752;10.290;2023-07-16T09:25:50;94061.53;;;21.06;100.00
50093;BME280;35974;47.752;10.290;2023-07-16T09:28:18;94052.97;;;20.83;100.00
50093;BME280;35974;47.752;10.290;2023-07-16T09:30:44;94048.22;;;21.11;100.00
50093;BME280;35974;47.752;10.290;2023-07-16T09:33:18;94050.38;;;21.09;100.00
50093;BME280;35974;47.752;10.290;2023-07-16T09:35:47;94062.63;;;21.20;100.00
50093;BME280;35974;47.752;10.290;2023-07-16T09:38:19;94050.38;;;21.55;100.00
50093;BME280;35974;47.752;10.290;2023-07-16T09:40:46;94058.59;;;21.13;100.00
50093;BME280;35974;47.752;10.290;2023-07-16T09:43:13;94066.28;;;20.99;100.00
50093;BME280;35974;47.752;10.290;2023-07-16T09:45:40;94051.94;;;21.41;100.00
50093;BME280;35974;47.752;10.290;2023-07-16T09:48:12;94053.31;;;21.38;100.00
50093;BME280;35974;47.752;10.290;2023-07-16T09:50:41;94065.81;;;21.64;100.00
50093;BME280;35974;47.752;10.290;2023-07-16T09:53:13;94066.34;;;21.35;100.00
50093;BME280;35974;47.752;10.290;2023-07-16T09:55:42;94074.03;;;21.21;100.00
50093;BME280;35974;47.752;10.290;2023-07-16T09:58:11;94070.09;;;21.60;100.00
50093;BME280;35974;47.752;10.290;2023-07-16T10:00:39;94075.94;;;21.56;100.00
50093;BME280;35974;47.752;10.290;2023-07-16T10:03:07;94073.81;;;21.48;100.00
50093;BME280;35974;47.752;10.290;2023-07-16T10:05:37;94075.66;;;21.32;100.00
50093;BME280;35974;47.752;10.290;2023-07-16T10:08:14;94067.38;;;21.13;100.00
50093;BME280;35974;47.752;10.290;2023-07-16T10:10:42;94070.06;;;21.49;100.00
50093;BME280;35974;47.752;10.290;2023-07-16T10:13:16;94079.06;;;22.00;100.00
50093;BME280;35974;47.752;10.290;2023-07-16T10:15:56;94075.84;;;22.08;100.00
50093;BME280;35974;47.752;10.290;2023-07-16T10:18:29;94065.19;;;22.18;100.00
50093;BME280;35974;47.752;10.290;2023-07-16T10:21:05;94065.25;;;21.77;100.00
50093;BME280;35974;47.752;10.290;2023-07-16T10:26:12;94072.75;;;21.54;100.00
50093;BME280;35974;47.752;10.290;2023-07-16T10:28:44;94067.41;;;21.85;100.00
50093;BME280;35974;47.752;10.290;2023-07-16T10:31:23;94066.25;;;22.12;100.00
50093;BME280;35974;47.752;10.290;2023-07-16T10:34:03;94070.59;;;21.87;100.00
50093;BME280;35974;47.752;10.290;2023-07-16T10:36:39;94074.81;;;21.99;100.00
50093;BME280;35974;47.752;10.290;2023-07-16T10:39:06;94069.63;;;22.48;100.00
50093;BME280;35974;47.752;10.290;2023-07-16T10:41:33;94062.47;;;22.34;100.00
50093;BME280;35974;47.752;10.290;2023-07-16T10:43:59;94065.41;;;22.27;100.00
50093;BME280;35974;47.752;10.290;2023-07-16T10:46:26;94066.09;;;22.63;100.00
50093;BME280;35974;47.752;10.290;2023-07-16T10:48:53;94061.88;;;22.57;100.00
50093;BME280;35974;47.752;10.290;2023-07-16T10:51:24;94063.00;;;22.41;100.00
50093;BME280;35974;47.752;10.290;2023-07-16T10:53:51;94066.44;;;22.46;100.00
50093;BME280;35974;47.752;10.290;2023-07-16T10:56:19;94058.78;;;22.79;100.00
50093;BME280;35974;47.752;10.290;2023-07-16T10:58:46;94057.38;;;22.47;100.00
50093;BME280;35974;47.752;10.290;2023-07-16T11:01:14;94049.09;;;22.49;100.00
50093;BME280;35974;47.752;10.290;2023-07-16T11:03:43;94048.97;;;22.70;100.00
50093;BME280;35974;47.752;10.290;2023-07-16T11:06:11;94046.94;;;22.51;100.00
50093;BME280;35974;47.752;10.290;2023-07-16T11:08:43;94045.41;;;22.40;100.00
50093;BME280;35974;47.752;10.290;2023-07-16T11:11:10;94050.31;;;22.02;100.00
50093;BME280;35974;47.752;10.290;2023-07-16T11:13:39;94053.44;;;22.24;100.00
50093;BME280;35974;47.752;10.290;2023-07-16T11:16:10;94058.91;;;22.59;100.00
50093;BME280;35974;47.752;10.290;2023-07-16T11:18:38;94056.97;;;22.75;100.00
50093;BME280;35974;47.752;10.290;2023-07-16T11:21:04;94064.75;;;22.66;100.00
50093;BME280;35974;47.752;10.290;2023-07-16T11:23:35;94064.69;;;22.81;100.00
50093;BME280;35974;47.752;10.290;2023-07-16T11:26:02;94062.88;;;22.72;100.00
50093;BME280;35974;47.752;10.290;2023-07-16T11:28:38;94063.63;;;22.77;100.00
50093;BME280;35974;47.752;10.290;2023-07-16T11:33:44;94065.88;;;23.04;100.00
50093;BME280;35974;47.752;10.290;2023-07-16T11:36:10;94063.06;;;23.30;100.00
50093;BME280;35974;47.752;10.290;2023-07-16T11:38:38;94056.00;;;23.39;100.00
50093;BME280;35974;47.752;10.290;2023-07-16T11:41:04;94061.50;;;23.24;100.00
50093;BME280;35974;47.752;10.290;2023-07-16T11:43:34;94062.59;;;23.52;100.00
50093;BME280;35974;47.752;10.290;2023-07-16T11:46:02;94057.22;;;23.57;100.00
50093;BME280;35974;47.752;10.290;2023-07-16T11:48:29;94054.53;;;23.28;100.00
50093;BME280;35974;47.752;10.290;2023-07-16T11:51:01;94052.84;;;23.37;100.00
50093;BME280;35974;47.752;10.290;2023-07-16T11:53:29;94051.81;;;23.33;100.00
50093;BME280;35974;47.752;10.290;2023-07-16T11:55:55;94036.91;;;23.27;100.00
50093;BME280;35974;47.752;10.290;2023-07-16T11:58:21;94046.56;;;23.18;100.00
50093;BME280;35974;47.752;10.290;2023-07-16T12:00:48;94038.19;;;23.35;100.00
50093;BME280;35974;47.752;10.290;2023-07-16T12:03:15;94050.94;;;23.72;100.00
50093;BME280;35974;47.752;10.290;2023-07-16T12:05:41;94045.88;;;23.71;100.00
50093;BME280;35974;47.752;10.290;2023-07-16T12:08:20;94048.66;;;23.90;100.00
50093;BME280;35974;47.752;10.290;2023-07-16T12:10:47;94037.97;;;23.90;100.00
50093;BME280;35974;47.752;10.290;2023-07-16T12:13:15;94030.69;;;23.37;100.00
50093;BME280;35974;47.752;10.290;2023-07-16T12:15:42;94029.81;;;23.47;100.00
50093;BME280;35974;47.752;10.290;2023-07-16T12:18:08;94022.19;;;23.59;100.00
50093;BME280;35974;47.752;10.290;2023-07-16T12:20:37;94028.88;;;23.91;100.00
50093;BME280;35974;47.752;10.290;2023-07-16T12:23:04;94032.81;;;23.69;100.00
50093;BME280;35974;47.752;10.290;2023-07-16T12:25:31;94036.16;;;23.56;100.00
50093;BME280;35974;47.752;10.290;2023-07-16T12:28:01;93987.91;;;23.13;100.00
50093;BME280;35974;47.752;10.290;2023-07-16T12:30:28;94033.53;;;24.04;100.00
50093;BME280;35974;47.752;10.290;2023-07-16T12:32:55;94039.66;;;23.81;100.00
50093;BME280;35974;47.752;10.290;2023-07-16T12:35:21;94037.03;;;23.75;100.00
50093;BME280;35974;47.752;10.290;2023-07-16T12:37:48;94038.09;;;24.04;100.00
50093;BME280;35974;47.752;10.290;2023-07-16T12:40:14;94038.56;;;23.87;100.00
50093;BME280;35974;47.752;10.290;2023-07-16T12:42:42;94025.81;;;23.73;100.00
50093;BME280;35974;47.752;10.290;2023-07-16T12:45:09;94032.06;;;23.93;100.00
50093;BME280;35974;47.752;10.290;2023-07-16T12:47:36;94030.38;;;24.02;100.00
50093;BME280;35974;47.752;10.290;2023-07-16T12:50:05;94028.88;;;23.91;100.00
50093;BME280;35974;47.752;10.290;2023-07-16T12:52:33;94035.47;;;23.99;100.00
50093;BME280;35974;47.752;10.290;2023-07-16T12:55:00;94032.19;;;23.48;100.00
50093;BME280;35974;47.752;10.290;2023-07-16T12:57:27;94038.16;;;23.69;100.00
50093;BME280;35974;47.752;10.290;2023-07-16T12:59:53;94031.69;;;23.75;100.00
50093;BME280;35974;47.752;10.290;2023-07-16T13:02:20;94027.63;;;23.83;100.00
50093;BME280;35974;47.752;10.290;2023-07-16T13:04:47;94025.19;;;23.82;100.00